sensor_id;sensor_type;location;lat;lon;timestamp;pressure;altitude;pressure_sealevel;temperature;humidity
79709;BME280;69203;48.964;9.118;2023-10-31T00:00:27;97663.31;;;11.16;100.00
79709;BME280;69203;48.964;9.118;2023-10-31T00:01:28;97664.84;;;11.19;100.00
79709;BME280;69203;48.964;9.118;2023-10-31T00:02:28;97665.28;;;11.24;100.00
79709;BME280;69203;48.964;9.118;2023-10-31T00:03:28;97668.19;;;11.21;100.00
79709;BME280;69203;48.964;9.118;2023-10-31T00:04:29;97669.28;;;11.18;100.00
79709;BME280;69203;48.964;9.118;2023-10-31T00:05:29;97665.25;;;11.14;100.00
79709;BME280;69203;48.964;9.118;2023-10-31T00:06:29;97669.69;;;11.14;100.00
79709;BME280;69203;48.964;9.118;2023-10-31T00:07:29;97672.19;;;11.15;100.00
79709;BME280;69203;48.964;9.118;2023-10-31T00:08:29;97670.66;;;11.13;100.00
79709;BME280;69203;48.964;9.118;2023-10-31T00:09:30;97671.34;;;11.15;100.00
79709;BME280;69203;48.964;9.118;2023-10-31T00:10:30;97667.88;;;11.14;100.00
79709;BME280;69203;48.964;9.118;2023-10-31T00:11:30;97671.06;;;11.08;100.00
79709;BME280;69203;48.964;9.118;2023-10-31T00:12:30;97668.31;;;11.10;100.00
79709;BME280;69203;48.964;9.118;2023-10-31T00:13:32;97661.78;;;11.04;100.00
79709;BME280;69203;48.964;9.118;2023-10-31T00:14:32;97671.03;;;10.98;100.00
79709;BME280;69203;48.964;9.118;2023-10-31T00:15:32;97670.03;;;10.90;100.00
79709;BME280;69203;48.964;9.118;2023-10-31T00:16:32;97675.44;;;10.88;100.00
79709;BME280;69203;48.964;9.118;2023-10-31T00:17:32;97677.47;;;10.85;100.00
79709;BME280;69203;48.964;9.118;2023-10-31T00:18:33;97687.03;;;10.86;100.00
79709;BME280;69203;48.964;9.118;2023-10-31T00:19:33;97679.69;;;10.80;100.00
79709;BME280;69203;48.964;9.118;2023-10-31T00:20:33;97687.66;;;10.69;100.00
79709;BME280;69203;48.964;9.118;2023-10-31T00:21:34;97690.03;;;10.72;100.00
79709;BME280;69203;48.964;9.118;2023-10-31T00:22:35;97696.50;;;10.68;100.00
79709;BME280;69203;48.964;9.118;2023-10-31T00:23:41;97695.00;;;10.75;100.00
79709;BME280;69203;48.964;9.118;2023-10-31T00:24:42;97703.81;;;10.74;100.00
79709;BME280;69203;48.964;9.118;2023-10-31T00:25:42;97706.19;;;10.67;100.00
79709;BME280;69203;48.964;9.118;2023-10-31T00:26:42;97704.91;;;10.62;100.00
79709;BME280;69203;48.964;9.118;2023-10-31T00:27:42;97695.44;;;10.49;100.00
79709;BME280;69203;48.964;9.118;2023-10-31T00:28:43;97697.63;;;10.44;100.00
79709;BME280;69203;48.964;9.118;2023-10-31T00:29:43;97691.50;;;10.34;100.00
79709;BME280;69203;48.964;9.118;2023-10-31T00:30:43;97695.38;;;10.30;100.00
79709;BME280;69203;48.964;9.118;2023-10-31T00:31:43;97685.94;;;10.28;100.00
79709;BME280;69203;48.964;9.118;2023-10-31T00:32:44;97686.06;;;10.26;100.00
79709;BME280;69203;48.964;9.118;2023-10-31T00:33:44;97683.00;;;10.21;100.00
79709;BME280;69203;48.964;9.118;2023-10-31T00:34:45;97681.84;;;10.14;100.00
79709;BME280;69203;48.964;9.118;2023-10-31T00:35:45;97683.88;;;10.10;100.00
79709;BME280;69203;48.964;9.118;2023-10-31T00:36:45;97682.34;;;10.08;100.00
79709;BME280;69203;48.964;9.118;2023-10-31T00:37:45;97690.66;;;10.13;100.00
79709;BME280;69203;48.964;9.118;2023-10-31T00:38:46;97692.84;;;10.08;100.00
79709;BME280;69203;48.964;9.118;2023-10-31T00:39:46;97695.84;;;10.03;100.00
79709;BME280;69203;48.964;9.118;2023-10-31T00:40:46;97690.03;;;10.00;100.00
79709;BME280;69203;48.964;9.118;2023-10-31T00:41:46;97699.16;;;10.05;100.00
79709;BME280;69203;48.964;9.118;2023-10-31T00:42:46;97687.56;;;9.98;100.00
79709;BME280;69203;48.964;9.118;2023-10-31T00:43:47;97690.16;;;9.98;100.00
79709;BME280;69203;48.964;9.118;2023-10-31T00:44:47;97690.28;;;9.97;100.00
79709;BME280;69203;48.964;9.118;2023-10-31T00:45:47;97685.16;;;9.95;100.00
79709;BME280;69203;48.964;9.118;2023-10-31T00:46:47;97683.19;;;9.88;100.00
79709;BME280;69203;48.964;9.118;2023-10-31T00:47:48;97682.94;;;9.91;100.00
79709;BME280;69203;48.964;9.118;2023-10-31T00:48:48;97680.25;;;9.81;100.00
79709;BME280;69203;48.964;9.118;2023-10-31T00:49:49;97684.66;;;9.81;100.00
79709;BME280;69203;48.964;9.118;2023-10-31T00:50:49;97688.38;;;9.78;100.00
79709;BME280;69203;48.964;9.118;2023-10-31T00:51:49;97685.75;;;9.78;100.00
79709;BME280;69203;48.964;9.118;2023-10-31T00:52:49;97680.03;;;9.73;100.00
79709;BME280;69203;48.964;9.118;2023-10-31T00:53:50;97684.97;;;9.66;100.00
79709;BME280;69203;48.964;9.118;2023-10-31T00:54:50;97691.06;;;9.67;100.00
79709;BME280;69203;48.964;9.118;2023-10-31T00:55:50;97680.91;;;9.62;100.00
79709;BME280;69203;48.964;9.118;2023-10-31T00:56:50;97684.63;;;9.60;100.00
79709;BME280;69203;48.964;9.118;2023-10-31T00:57:51;97683.09;;;9.57;100.00
79709;BME280;69203;48.964;9.118;2023-10-31T00:58:51;97679.91;;;9.54;100.00
79709;BME280;69203;48.964;9.118;2023-10-31T00:59:51;97684.19;;;9.55;100.00
79709;BME280;69203;48.964;9.118;2023-10-31T01:00:51;97679.06;;;9.53;100.00
79709;BME280;69203;48.964;9.118;2023-10-31T01:01:52;97678.38;;;9.51;100.00
79709;BME280;69203;48.964;9.118;2023-10-31T01:02:52;97673.81;;;9.53;100.00
79709;BME280;69203;48.964;9.118;2023-10-31T01:03:52;97680.00;;;9.52;100.00
79709;BME280;69203;48.964;9.118;2023-10-31T01:04:52;97672.53;;;9.48;100.00
79709;BME280;69203;48.964;9.118;2023-10-31T01:05:53;97685.06;;;9.44;100.00
79709;BME280;69203;48.964;9.118;2023-10-31T01:06:53;97679.09;;;9.42;100.00
79709;BME280;69203;48.964;9.118;2023-10-31T01:07:53;97682.56;;;9.43;100.00
79709;BME280;69203;48.964;9.118;2023-10-31T01:08:54;97680.88;;;9.42;100.00
79709;BME280;69203;48.964;9.118;2023-10-31T01:09:54;97672.34;;;9.40;100.00
79709;BME280;69203;48.964;9.118;2023-10-31T01:10:54;97672.91;;;9.43;100.00
79709;BME280;69203;48.964;9.118;2023-10-31T01:11:54;97677.94;;;9.46;100.00
79709;BME280;69203;48.964;9.118;2023-10-31T01:12:54;97689.53;;;9.53;100.00
79709;BME280;69203;48.964;9.118;2023-10-31T01:13:55;97680.41;;;9.48;100.00
79709;BME280;69203;48.964;9.118;2023-10-31T01:14:55;97679.09;;;9.42;100.00
79709;BME280;69203;48.964;9.118;2023-10-31T01:15:55;97675.81;;;9.40;100.00
79709;BME280;69203;48.964;9.118;2023-10-31T01:16:55;97683.41;;;9.43;100.00
79709;BME280;69203;48.964;9.118;2023-10-31T01:17:56;97685.66;;;9.37;100.00
79709;BME280;69203;48.964;9.118;2023-10-31T01:18:56;97680.13;;;9.30;100.00
79709;BME280;69203;48.964;9.118;2023-10-31T01:19:56;97677.34;;;9.31;100.00
79709;BME280;69203;48.964;9.118;2023-10-31T01:20:56;97680.81;;;9.32;100.00
79709;BME280;69203;48.964;9.118;2023-10-31T01:21:57;97672.59;;;9.25;100.00
79709;BME280;69203;48.964;9.118;2023-10-31T01:22:57;97667.25;;;9.27;100.00
79709;BME280;69203;48.964;9.118;2023-10-31T01:23:58;97656.91;;;9.25;100.00
79709;BME280;69203;48.964;9.118;2023-10-31T01:24:59;97654.53;;;9.22;100.00
79709;BME280;69203;48.964;9.118;2023-10-31T01:25:59;97653.72;;;9.22;100.00
79709;BME280;69203;48.964;9.118;2023-10-31T01:26:59;97643.63;;;9.17;100.00
79709;BME280;69203;48.964;9.118;2023-10-31T01:27:59;97643.72;;;9.16;100.00
79709;BME280;69203;48.964;9.118;2023-10-31T01:29:00;97635.28;;;9.12;100.00
79709;BME280;69203;48.964;9.118;2023-10-31T01:30:00;97639.25;;;9.07;100.00
79709;BME280;69203;48.964;9.118;2023-10-31T01:31:00;97633.06;;;9.08;100.00
79709;BME280;69203;48.964;9.118;2023-10-31T01:32:01;97642.44;;;9.10;100.00
79709;BME280;69203;48.964;9.118;2023-10-31T01:33:01;97636.63;;;9.07;100.00
79709;BME280;69203;48.964;9.118;2023-10-31T01:34:01;97635.66;;;9.08;100.00
79709;BME280;69203;48.964;9.118;2023-10-31T01:35:02;97631.75;;;9.02;100.00
79709;BME280;69203;48.964;9.118;2023-10-31T01:36:04;97640.56;;;9.01;100.00
79709;BME280;69203;48.964;9.118;2023-10-31T01:37:04;97641.97;;;9.05;100.00
79709;BME280;69203;48.964;9.118;2023-10-31T01:38:04;97643.94;;;8.92;100.00
79709;BME280;69203;48.964;9.118;2023-10-31T01:39:04;97647.13;;;8.96;100.00
79709;BME280;69203;48.964;9.118;2023-10-31T01:40:05;97644.63;;;8.94;100.00
79709;BME280;69203;48.964;9.118;2023-10-31T01:41:07;97647.84;;;8.98;100.00
79709;BME280;69203;48.964;9.118;2023-10-31T01:42:08;97650.00;;;8.93;100.00
79709;BME280;69203;48.964;9.118;2023-10-31T01:43:08;97646.78;;;8.89;100.00
79709;BME280;69203;48.964;9.118;2023-10-31T01:44:09;97652.72;;;8.91;100.00
79709;BME280;69203;48.964;9.118;2023-10-31T01:45:10;97657.13;;;8.90;100.00
79709;BME280;69203;48.964;9.118;2023-10-31T01:46:14;97655.56;;;8.99;100.00
79709;BME280;69203;48.964;9.118;2023-10-31T01:47:14;97662.34;;;9.02;100.00
79709;BME280;69203;48.964;9.118;2023-10-31T01:48:14;97656.38;;;9.00;100.00
79709;BME280;69203;48.964;9.118;2023-10-31T01:49:15;97654.84;;;8.97;100.00
79709;BME280;69203;48.964;9.118;2023-10-31T01:50:15;97658.53;;;8.95;100.00
79709;BME280;69203;48.964;9.118;2023-10-31T01:51:16;97654.25;;;8.94;100.00
79709;BME280;69203;48.964;9.118;2023-10-31T01:52:17;97659.47;;;9.05;100.00
79709;BME280;69203;48.964;9.118;2023-10-31T01:53:17;97654.84;;;9.08;100.00
79709;BME280;69203;48.964;9.118;2023-10-31T01:54:18;97660.38;;;9.15;100.00
79709;BME280;69203;48.964;9.118;2023-10-31T01:55:18;97660.66;;;9.12;100.00
79709;BME280;69203;48.964;9.118;2023-10-31T01:56:19;97655.28;;;9.13;100.00
79709;BME280;69203;48.964;9.118;2023-10-31T01:57:21;97660.16;;;9.18;100.00
79709;BME280;69203;48.964;9.118;2023-10-31T01:58:23;97658.00;;;9.23;100.00
79709;BME280;69203;48.964;9.118;2023-10-31T01:59:24;97662.97;;;9.26;100.00
79709;BME280;69203;48.964;9.118;2023-10-31T02:00:24;97659.28;;;9.28;100.00
79709;BME280;69203;48.964;9.118;2023-10-31T02:01:25;97662.13;;;9.25;100.00
79709;BME280;69203;48.964;9.118;2023-10-31T02:02:25;97659.41;;;9.27;100.00
79709;BME280;69203;48.964;9.118;2023-10-31T02:03:27;97657.16;;;9.22;100.00
79709;BME280;69203;48.964;9.118;2023-10-31T02:04:27;97658.72;;;9.25;100.00
79709;BME280;69203;48.964;9.118;2023-10-31T02:05:28;97657.88;;;9.24;100.00
79709;BME280;69203;48.964;9.118;2023-10-31T02:06:28;97661.66;;;9.31;100.00
79709;BME280;69203;48.964;9.118;2023-10-31T02:07:30;97661.53;;;9.33;100.00
79709;BME280;69203;48.964;9.118;2023-10-31T02:08:30;97669.03;;;9.26;100.00
79709;BME280;69203;48.964;9.118;2023-10-31T02:09:31;97663.81;;;9.26;100.00
79709;BME280;69203;48.964;9.118;2023-10-31T02:10:32;97670.81;;;9.26;100.00
79709;BME280;69203;48.964;9.118;2023-10-31T02:11:32;97666.22;;;9.18;100.00
79709;BME280;69203;48.964;9.118;2023-10-31T02:12:36;97677.06;;;9.14;100.00
79709;BME280;69203;48.964;9.118;2023-10-31T02:13:37;97674.56;;;9.12;100.00
79709;BME280;69203;48.964;9.118;2023-10-31T02:14:37;97668.63;;;9.10;100.00
79709;BME280;69203;48.964;9.118;2023-10-31T02:15:38;97668.75;;;9.09;100.00
79709;BME280;69203;48.964;9.118;2023-10-31T02:16:38;97675.16;;;9.05;100.00
79709;BME280;69203;48.964;9.118;2023-10-31T02:17:38;97674.47;;;9.03;100.00
79709;BME280;69203;48.964;9.118;2023-10-31T02:18:39;97675.16;;;9.05;100.00
79709;BME280;69203;48.964;9.118;2023-10-31T02:19:39;97676.84;;;9.06;100.00
79709;BME280;69203;48.964;9.118;2023-10-31T02:20:39;97678.75;;;9.04;100.00
79709;BME280;69203;48.964;9.118;2023-10-31T02:21:40;97673.66;;;9.02;100.00
79709;BME280;69203;48.964;9.118;2023-10-31T02:22:40;97671.03;;;9.02;100.00
79709;BME280;69203;48.964;9.118;2023-10-31T02:23:41;97671.25;;;8.99;100.00
79709;BME280;69203;48.964;9.118;2023-10-31T02:24:41;97676.94;;;9.04;100.00
79709;BME280;69203;48.964;9.118;2023-10-31T02:25:42;97676.84;;;9.06;100.00
79709;BME280;69203;48.964;9.118;2023-10-31T02:26:42;97677.09;;;9.03;100.00
79709;BME280;69203;48.964;9.118;2023-10-31T02:27:43;97676.38;;;9.01;100.00
79709;BME280;69203;48.964;9.118;2023-10-31T02:28:43;97678.63;;;9.05;100.00
79709;BME280;69203;48.964;9.118;2023-10-31T02:29:44;97684.34;;;8.99;100.00
79709;BME280;69203;48.964;9.118;2023-10-31T02:30:44;97680.56;;;9.03;100.00
79709;BME280;69203;48.964;9.118;2023-10-31T02:31:46;97676.94;;;9.04;100.00
79709;BME280;69203;48.964;9.118;2023-10-31T02:32:46;97672.44;;;9.06;100.00
79709;BME280;69203;48.964;9.118;2023-10-31T02:33:46;97677.78;;;9.05;100.00
79709;BME280;69203;48.964;9.118;2023-10-31T02:34:47;97665.91;;;9.01;100.00
79709;BME280;69203;48.964;9.118;2023-10-31T02:35:48;97676.25;;;9.02;100.00
79709;BME280;69203;48.964;9.118;2023-10-31T02:36:48;97681.25;;;8.94;100.00
79709;BME280;69203;48.964;9.118;2023-10-31T02:37:48;97673.88;;;8.99;100.00
79709;BME280;69203;48.964;9.118;2023-10-31T02:38:49;97673.53;;;9.04;100.00
79709;BME280;69203;48.964;9.118;2023-10-31T02:39:49;97679.94;;;9.00;100.00
79709;BME280;69203;48.964;9.118;2023-10-31T02:40:49;97680.91;;;8.99;100.00
79709;BME280;69203;48.964;9.118;2023-10-31T02:41:50;97680.44;;;8.94;100.00
79709;BME280;69203;48.964;9.118;2023-10-31T02:42:50;97686.28;;;8.97;100.00
79709;BME280;69203;48.964;9.118;2023-10-31T02:43:50;97681.16;;;8.96;100.00
79709;BME280;69203;48.964;9.118;2023-10-31T02:44:51;97686.38;;;8.96;100.00
79709;BME280;69203;48.964;9.118;2023-10-31T02:45:51;97691.41;;;8.99;100.00
79709;BME280;69203;48.964;9.118;2023-10-31T02:46:51;97691.97;;;9.02;100.00
79709;BME280;69203;48.964;9.118;2023-10-31T02:47:51;97690.75;;;9.06;100.00
79709;BME280;69203;48.964;9.118;2023-10-31T02:48:52;97694.47;;;9.04;100.00
79709;BME280;69203;48.964;9.118;2023-10-31T02:49:52;97694.81;;;8.99;100.00
79709;BME280;69203;48.964;9.118;2023-10-31T02:50:52;97703.28;;;9.03;100.00
79709;BME280;69203;48.964;9.118;2023-10-31T02:51:52;97701.50;;;9.03;100.00
79709;BME280;69203;48.964;9.118;2023-10-31T02:52:53;97698.16;;;9.01;100.00
79709;BME280;69203;48.964;9.118;2023-10-31T02:53:53;97704.69;;;9.07;100.00
79709;BME280;69203;48.964;9.118;2023-10-31T02:54:53;97702.19;;;9.05;100.00
79709;BME280;69203;48.964;9.118;2023-10-31T02:55:53;97701.72;;;9.00;100.00
79709;BME280;69203;48.964;9.118;2023-10-31T02:56:54;97706.38;;;8.97;100.00
79709;BME280;69203;48.964;9.118;2023-10-31T02:57:54;97701.38;;;8.94;100.00
79709;BME280;69203;48.964;9.118;2023-10-31T02:58:55;97699.59;;;8.94;100.00
79709;BME280;69203;48.964;9.118;2023-10-31T02:59:55;97694.03;;;8.87;100.00
79709;BME280;69203;48.964;9.118;2023-10-31T03:00:55;97699.38;;;8.86;100.00
79709;BME280;69203;48.964;9.118;2023-10-31T03:01:56;97696.50;;;8.89;100.00
79709;BME280;69203;48.964;9.118;2023-10-31T03:02:57;97696.28;;;8.92;100.00
79709;BME280;69203;48.964;9.118;2023-10-31T03:03:57;97699.59;;;8.94;100.00
79709;BME280;69203;48.964;9.118;2023-10-31T03:05:00;97697.59;;;8.86;100.00
79709;BME280;69203;48.964;9.118;2023-10-31T03:06:02;97700.09;;;8.88;100.00
79709;BME280;69203;48.964;9.118;2023-10-31T03:07:04;97694.25;;;8.84;100.00
79709;BME280;69203;48.964;9.118;2023-10-31T03:08:04;97700.22;;;8.86;100.00
79709;BME280;69203;48.964;9.118;2023-10-31T03:09:06;97707.56;;;8.93;100.00
79709;BME280;69203;48.964;9.118;2023-10-31T03:10:06;97703.78;;;8.85;100.00
79709;BME280;69203;48.964;9.118;2023-10-31T03:11:06;97707.22;;;8.86;100.00
79709;BME280;69203;48.964;9.118;2023-10-31T03:12:07;97719.22;;;8.88;100.00
79709;BME280;69203;48.964;9.118;2023-10-31T03:13:08;97723.41;;;8.91;100.00
79709;BME280;69203;48.964;9.118;2023-10-31T03:14:08;97717.44;;;8.89;100.00
79709;BME280;69203;48.964;9.118;2023-10-31T03:15:08;97710.19;;;8.93;100.00
79709;BME280;69203;48.964;9.118;2023-10-31T03:16:09;97721.00;;;8.99;100.00
79709;BME280;69203;48.964;9.118;2023-10-31T03:17:09;97721.25;;;8.96;100.00
79709;BME280;69203;48.964;9.118;2023-10-31T03:18:09;97719.69;;;8.94;100.00
79709;BME280;69203;48.964;9.118;2023-10-31T03:19:09;97727.44;;;8.95;100.00
79709;BME280;69203;48.964;9.118;2023-10-31T03:20:10;97711.34;;;9.00;100.00
79709;BME280;69203;48.964;9.118;2023-10-31T03:21:10;97708.16;;;8.96;100.00
79709;BME280;69203;48.964;9.118;2023-10-31T03:22:10;97718.16;;;9.02;100.00
79709;BME280;69203;48.964;9.118;2023-10-31T03:23:11;97720.66;;;9.04;100.00
79709;BME280;69203;48.964;9.118;2023-10-31T03:24:11;97718.50;;;9.09;100.00
79709;BME280;69203;48.964;9.118;2023-10-31T03:25:11;97718.81;;;9.15;100.00
79709;BME280;69203;48.964;9.118;2023-10-31T03:26:12;97710.28;;;9.13;100.00
79709;BME280;69203;48.964;9.118;2023-10-31T03:27:12;97709.44;;;9.13;100.00
79709;BME280;69203;48.964;9.118;2023-10-31T03:28:18;97709.44;;;9.13;100.00
79709;BME280;69203;48.964;9.118;2023-10-31T03:29:19;97707.88;;;9.21;100.00
79709;BME280;69203;48.964;9.118;2023-10-31T03:30:19;97704.19;;;9.24;100.00
79709;BME280;69203;48.964;9.118;2023-10-31T03:31:19;97700.84;;;9.22;100.00
79709;BME280;69203;48.964;9.118;2023-10-31T03:32:20;97701.78;;;9.21;100.00
79709;BME280;69203;48.964;9.118;2023-10-31T03:33:20;97706.06;;;9.22;100.00
79709;BME280;69203;48.964;9.118;2023-10-31T03:34:20;97706.06;;;9.22;100.00
79709;BME280;69203;48.964;9.118;2023-10-31T03:35:20;97701.56;;;9.24;100.00
79709;BME280;69203;48.964;9.118;2023-10-31T03:36:21;97698.09;;;9.23;100.00
79709;BME280;69203;48.964;9.118;2023-10-31T03:37:21;97691.53;;;9.29;100.00
79709;BME280;69203;48.964;9.118;2023-10-31T03:38:21;97698.69;;;9.27;100.00
79709;BME280;69203;48.964;9.118;2023-10-31T03:39:21;97695.38;;;9.25;100.00
79709;BME280;69203;48.964;9.118;2023-10-31T03:40:22;97689.03;;;9.27;100.00
79709;BME280;69203;48.964;9.118;2023-10-31T03:41:22;97686.78;;;9.34;100.00
79709;BME280;69203;48.964;9.118;2023-10-31T03:42:22;97688.66;;;9.32;100.00
79709;BME280;69203;48.964;9.118;2023-10-31T03:43:22;97678.44;;;9.29;100.00
79709;BME280;69203;48.964;9.118;2023-10-31T03:44:24;97687.16;;;9.29;100.00
79709;BME280;69203;48.964;9.118;2023-10-31T03:45:24;97685.34;;;9.30;100.00
79709;BME280;69203;48.964;9.118;2023-10-31T03:46:24;97683.44;;;9.32;100.00
79709;BME280;69203;48.964;9.118;2023-10-31T03:47:24;97681.25;;;9.37;100.00
79709;BME280;69203;48.964;9.118;2023-10-31T03:48:24;97676.47;;;9.42;100.00
79709;BME280;69203;48.964;9.118;2023-10-31T03:49:25;97678.53;;;9.39;100.00
79709;BME280;69203;48.964;9.118;2023-10-31T03:50:25;97675.34;;;9.35;100.00
79709;BME280;69203;48.964;9.118;2023-10-31T03:51:26;97670.69;;;9.39;100.00
79709;BME280;69203;48.964;9.118;2023-10-31T03:52:27;97669.97;;;9.37;100.00
79709;BME280;69203;48.964;9.118;2023-10-31T03:53:27;97669.97;;;9.37;100.00
79709;BME280;69203;48.964;9.118;2023-10-31T03:54:27;97659.84;;;9.32;100.00
79709;BME280;69203;48.964;9.118;2023-10-31T03:55:27;97668.63;;;9.42;100.00
79709;BME280;69203;48.964;9.118;2023-10-31T03:56:28;97664.00;;;9.46;100.00
79709;BME280;69203;48.964;9.118;2023-10-31T03:57:28;97659.81;;;9.43;100.00
79709;BME280;69203;48.964;9.118;2023-10-31T03:58:28;97657.13;;;9.33;100.00
79709;BME280;69203;48.964;9.118;2023-10-31T03:59:29;97652.72;;;9.34;100.00
79709;BME280;69203;48.964;9.118;2023-10-31T04:00:29;97646.28;;;9.38;100.00
79709;BME280;69203;48.964;9.118;2023-10-31T04:01:29;97647.81;;;9.41;100.00
79709;BME280;69203;48.964;9.118;2023-10-31T04:02:29;97645.31;;;9.39;100.00
79709;BME280;69203;48.964;9.118;2023-10-31T04:03:30;97647.81;;;9.41;100.00
79709;BME280;69203;48.964;9.118;2023-10-31T04:04:30;97640.06;;;9.39;100.00
79709;BME280;69203;48.964;9.118;2023-10-31T04:05:30;97641.28;;;9.35;100.00
79709;BME280;69203;48.964;9.118;2023-10-31T04:06:30;97644.53;;;9.27;100.00
79709;BME280;69203;48.964;9.118;2023-10-31T04:07:31;97632.38;;;9.26;100.00
79709;BME280;69203;48.964;9.118;2023-10-31T04:08:31;97638.56;;;9.25;100.00
79709;BME280;69203;48.964;9.118;2023-10-31T04:09:31;97628.69;;;9.29;100.00
79709;BME280;69203;48.964;9.118;2023-10-31T04:10:32;97627.13;;;9.26;100.00
79709;BME280;69203;48.964;9.118;2023-10-31T04:11:32;97621.78;;;9.28;100.00
79709;BME280;69203;48.964;9.118;2023-10-31T04:12:32;97627.03;;;9.28;100.00
79709;BME280;69203;48.964;9.118;2023-10-31T04:13:34;97635.47;;;9.31;100.00
79709;BME280;69203;48.964;9.118;2023-10-31T04:14:34;97629.97;;;9.35;100.00
79709;BME280;69203;48.964;9.118;2023-10-31T04:15:34;97637.97;;;9.33;100.00
79709;BME280;69203;48.964;9.118;2023-10-31T04:16:38;97638.22;;;9.30;100.00
79709;BME280;69203;48.964;9.118;2023-10-31T04:17:38;97632.97;;;9.30;100.00
79709;BME280;69203;48.964;9.118;2023-10-31T04:18:39;97633.81;;;9.30;100.00
79709;BME280;69203;48.964;9.118;2023-10-31T04:19:39;97641.91;;;9.27;100.00
79709;BME280;69203;48.964;9.118;2023-10-31T04:20:40;97642.63;;;9.29;100.00
79709;BME280;69203;48.964;9.118;2023-10-31T04:21:40;97639.41;;;9.26;100.00
79709;BME280;69203;48.964;9.118;2023-10-31T04:22:41;97638.22;;;9.30;100.00
79709;BME280;69203;48.964;9.118;2023-10-31T04:23:41;97636.66;;;9.27;100.00
79709;BME280;69203;48.964;9.118;2023-10-31T04:24:41;97639.28;;;9.27;100.00
79709;BME280;69203;48.964;9.118;2023-10-31T04:25:41;97634.16;;;9.26;100.00
79709;BME280;69203;48.964;9.118;2023-10-31T04:26:42;97634.03;;;9.27;100.00
79709;BME280;69203;48.964;9.118;2023-10-31T04:27:42;97639.28;;;9.27;100.00
79709;BME280;69203;48.964;9.118;2023-10-31T04:28:42;97627.75;;;9.30;100.00
79709;BME280;69203;48.964;9.118;2023-10-31T04:29:42;97626.91;;;9.29;100.00
79709;BME280;69203;48.964;9.118;2023-10-31T04:30:43;97627.97;;;9.27;100.00
79709;BME280;69203;48.964;9.118;2023-10-31T04:31:43;97623.00;;;9.24;100.00
79709;BME280;69203;48.964;9.118;2023-10-31T04:32:43;97627.03;;;9.28;100.00
79709;BME280;69203;48.964;9.118;2023-10-31T04:33:43;97623.38;;;9.19;100.00
79709;BME280;69203;48.964;9.118;2023-10-31T04:34:43;97622.56;;;9.19;100.00
79709;BME280;69203;48.964;9.118;2023-10-31T04:35:44;97625.75;;;9.22;100.00
79709;BME280;69203;48.964;9.118;2023-10-31T04:36:44;97628.00;;;9.16;100.00
79709;BME280;69203;48.964;9.118;2023-10-31T04:37:44;97639.31;;;9.16;100.00
79709;BME280;69203;48.964;9.118;2023-10-31T04:38:45;97632.56;;;9.14;100.00
79709;BME280;69203;48.964;9.118;2023-10-31T04:39:45;97630.53;;;9.17;100.00
79709;BME280;69203;48.964;9.118;2023-10-31T04:40:45;97640.88;;;9.19;100.00
79709;BME280;69203;48.964;9.118;2023-10-31T04:41:45;97634.84;;;9.07;100.00
79709;BME280;69203;48.964;9.118;2023-10-31T04:42:47;97642.69;;;9.07;100.00
79709;BME280;69203;48.964;9.118;2023-10-31T04:43:47;97636.63;;;9.07;100.00
79709;BME280;69203;48.964;9.118;2023-10-31T04:44:48;97630.31;;;9.09;100.00
79709;BME280;69203;48.964;9.118;2023-10-31T04:45:48;97634.47;;;9.12;100.00
79709;BME280;69203;48.964;9.118;2023-10-31T04:46:48;97631.50;;;9.05;100.00
79709;BME280;69203;48.964;9.118;2023-10-31T04:47:48;97636.13;;;9.13;100.00
79709;BME280;69203;48.964;9.118;2023-10-31T04:48:49;97643.72;;;9.16;100.00
79709;BME280;69203;48.964;9.118;2023-10-31T04:49:49;97634.69;;;9.20;100.00
79709;BME280;69203;48.964;9.118;2023-10-31T04:50:49;97636.09;;;9.24;100.00
79709;BME280;69203;48.964;9.118;2023-10-31T04:51:49;97632.06;;;9.20;100.00
79709;BME280;69203;48.964;9.118;2023-10-31T04:52:50;97628.84;;;9.16;100.00
79709;BME280;69203;48.964;9.118;2023-10-31T04:53:50;97627.06;;;9.17;100.00
79709;BME280;69203;48.964;9.118;2023-10-31T04:54:50;97626.34;;;9.15;100.00
79709;BME280;69203;48.964;9.118;2023-10-31T04:55:50;97631.59;;;9.15;100.00
79709;BME280;69203;48.964;9.118;2023-10-31T04:56:51;97624.00;;;9.12;100.00
79709;BME280;69203;48.964;9.118;2023-10-31T04:57:51;97621.50;;;9.10;100.00
79709;BME280;69203;48.964;9.118;2023-10-31T04:58:51;97611.72;;;9.12;100.00
79709;BME280;69203;48.964;9.118;2023-10-31T04:59:51;97615.78;;;9.05;100.00
79709;BME280;69203;48.964;9.118;2023-10-31T05:00:54;97621.19;;;9.04;100.00
79709;BME280;69203;48.964;9.118;2023-10-31T05:01:54;97621.03;;;9.05;100.00
79709;BME280;69203;48.964;9.118;2023-10-31T05:02:55;97626.41;;;9.04;100.00
79709;BME280;69203;48.964;9.118;2023-10-31T05:03:56;97626.16;;;9.07;100.00
79709;BME280;69203;48.964;9.118;2023-10-31T05:04:57;97621.41;;;9.01;100.00
79709;BME280;69203;48.964;9.118;2023-10-31T05:05:58;97633.31;;;8.94;100.00
79709;BME280;69203;48.964;9.118;2023-10-31T05:06:58;97630.97;;;8.90;100.00
79709;BME280;69203;48.964;9.118;2023-10-31T05:07:58;97624.66;;;8.93;100.00
79709;BME280;69203;48.964;9.118;2023-10-31T05:08:58;97621.59;;;8.88;100.00
79709;BME280;69203;48.964;9.118;2023-10-31T05:09:59;97624.66;;;8.93;100.00
79709;BME280;69203;48.964;9.118;2023-10-31T05:10:59;97628.22;;;8.92;100.00
79709;BME280;69203;48.964;9.118;2023-10-31T05:12:00;97629.19;;;8.91;100.00
79709;BME280;69203;48.964;9.118;2023-10-31T05:13:00;97627.50;;;8.90;100.00
79709;BME280;69203;48.964;9.118;2023-10-31T05:14:01;97620.75;;;8.87;100.00
79709;BME280;69203;48.964;9.118;2023-10-31T05:15:01;97630.97;;;8.90;100.00
79709;BME280;69203;48.964;9.118;2023-10-31T05:16:02;97624.78;;;8.92;100.00
79709;BME280;69203;48.964;9.118;2023-10-31T05:17:03;97631.78;;;8.91;100.00
79709;BME280;69203;48.964;9.118;2023-10-31T05:18:03;97633.09;;;8.97;100.00
79709;BME280;69203;48.964;9.118;2023-10-31T05:19:03;97638.22;;;8.98;100.00
79709;BME280;69203;48.964;9.118;2023-10-31T05:20:04;97636.75;;;8.94;100.00